Time;durP1;ratioP1;P1;durP2;ratioP2;P2;SDS_P1;SDS_P2;PMS_P1;PMS_P2;Temp;Humidity;BMP_temperature;BMP_pressure;BME280_temperature;BME280_humidity;BME280_pressure;Samples;Min_cycle;Max_cycle;Signal;HPM_P1;HPM_P2
2023/06/04 00:00:44;;;;;;;4.00;3.10;;;26.10;41.70;;;;;;5065247;28;45362;-67
2023/06/04 00:03:12;;;;;;;3.70;3.40;;;26.10;41.70;;;;;;5065163;28;45410;-68
2023/06/04 00:05:39;;;;;;;3.17;2.88;;;26.10;41.70;;;;;;5065798;28;45273;-68
2023/06/04 00:08:06;;;;;;;3.90;3.50;;;26.00;41.60;;;;;;5065370;28;45275;-67
2023/06/04 00:10:33;;;;;;;3.42;3.13;;;26.00;41.70;;;;;;5065179;28;45413;-67
2023/06/04 00:13:00;;;;;;;3.72;3.40;;;26.00;41.70;;;;;;5065329;28;45419;-67
2023/06/04 00:15:27;;;;;;;3.85;3.42;;;26.00;41.80;;;;;;5065212;28;45551;-66
2023/06/04 00:17:54;;;;;;;3.50;3.20;;;26.00;41.80;;;;;;5065007;28;45417;-66
2023/06/04 00:20:22;;;;;;;3.75;3.35;;;26.00;41.80;;;;;;5065200;28;45257;-67
2023/06/04 00:22:49;;;;;;;3.40;3.10;;;26.00;41.90;;;;;;5065197;28;45358;-65
2023/06/04 00:25:15;;;;;;;3.75;3.33;;;25.90;41.80;;;;;;5065178;28;45308;-66
2023/06/04 00:27:42;;;;;;;3.60;3.30;;;25.90;41.90;;;;;;5064757;28;45535;-66
2023/06/04 00:30:10;;;;;;;3.50;3.20;;;25.90;41.90;;;;;;5064976;28;45274;-66
2023/06/04 00:32:37;;;;;;;4.85;3.22;;;25.90;41.80;;;;;;5064961;28;45394;-66
2023/06/04 00:35:04;;;;;;;3.50;3.20;;;25.80;41.80;;;;;;5065153;28;45443;-66
2023/06/04 00:37:33;;;;;;;3.92;3.50;;;25.80;41.90;;;;;;5067534;27;45333;-65
2023/06/04 00:40:00;;;;;;;4.22;3.47;;;25.80;42.00;;;;;;5068363;28;45308;-65
2023/06/04 00:42:27;;;;;;;3.80;3.50;;;25.80;42.00;;;;;;5068602;27;45246;-67
2023/06/04 00:44:54;;;;;;;3.60;3.30;;;25.80;42.00;;;;;;5068624;28;45350;-66
2023/06/04 00:47:21;;;;;;;3.67;3.38;;;25.70;42.00;;;;;;5068081;28;47308;-65
2023/06/04 00:49:48;;;;;;;3.40;3.10;;;25.70;42.10;;;;;;5068214;28;45332;-66
2023/06/04 00:52:15;;;;;;;3.90;3.22;;;25.70;42.10;;;;;;5068201;28;45331;-66
2023/06/04 00:54:43;;;;;;;3.75;3.40;;;25.70;42.10;;;;;;5068377;28;45535;-66
2023/06/04 00:57:10;;;;;;;3.63;3.33;;;25.60;42.10;;;;;;5067901;28;47573;-66
2023/06/04 00:59:38;;;;;;;3.50;3.20;;;25.60;42.20;;;;;;5068041;28;45415;-66
2023/06/04 01:02:07;;;;;;;3.83;3.50;;;25.60;42.30;;;;;;5067882;28;45327;-66
2023/06/04 01:04:35;;;;;;;3.28;2.97;;;25.60;42.30;;;;;;5068273;28;45372;-66
2023/06/04 01:07:03;;;;;;;4.40;3.45;;;25.50;42.30;;;;;;5065188;28;46161;-67
2023/06/04 01:09:30;;;;;;;3.53;3.10;;;25.50;42.30;;;;;;5067852;28;45289;-66
2023/06/04 01:11:58;;;;;;;3.70;3.40;;;25.40;42.20;;;;;;5065445;28;45296;-66
2023/06/04 01:14:25;;;;;;;3.22;2.92;;;25.40;42.30;;;;;;5068404;28;45394;-66
2023/06/04 01:17:01;;;;;;;4.75;3.70;;;25.40;42.40;;;;;;5067934;28;45412;-66
2023/06/04 01:19:54;;;;;;;3.63;3.33;;;25.30;42.30;;;;;;5067791;28;45264;-66
2023/06/04 01:22:28;;;;;;;3.38;3.08;;;25.30;42.30;;;;;;5067871;28;45277;-66
2023/06/04 01:24:57;;;;;;;4.13;3.33;;;25.30;42.40;;;;;;5067860;28;45582;-66
2023/06/04 01:27:25;;;;;;;3.28;2.92;;;25.30;42.40;;;;;;5067450;28;45260;-66
2023/06/04 01:29:52;;;;;;;3.58;3.28;;;25.30;42.40;;;;;;5067590;28;45258;-65
2023/06/04 01:32:19;;;;;;;3.22;3.00;;;25.30;43.00;;;;;;5067735;28;45488;-66
2023/06/04 01:34:46;;;;;;;4.88;3.40;;;25.20;42.40;;;;;;5067864;28;45344;-66
2023/06/04 01:37:13;;;;;;;4.10;3.20;;;25.20;42.50;;;;;;5067408;28;46473;-67
2023/06/04 01:39:40;;;;;;;3.92;3.53;;;25.20;42.40;;;;;;5067685;28;45627;-66
2023/06/04 01:42:08;;;;;;;3.65;3.30;;;25.20;42.50;;;;;;5067736;28;45284;-67
2023/06/04 01:44:36;;;;;;;3.47;3.17;;;25.10;42.40;;;;;;5067828;28;45398;-66
2023/06/04 01:47:03;;;;;;;3.80;3.40;;;25.10;42.50;;;;;;5067048;28;46392;-65
2023/06/04 01:49:29;;;;;;;3.70;3.10;;;25.10;42.50;;;;;;5067190;28;45351;-66
2023/06/04 01:51:57;;;;;;;4.13;3.20;;;25.10;42.50;;;;;;5067422;28;45408;-65
2023/06/04 01:54:23;;;;;;;3.47;3.17;;;25.00;42.40;;;;;;5067456;28;45374;-66
2023/06/04 01:56:50;;;;;;;4.43;3.15;;;25.00;42.50;;;;;;5066938;28;47427;-66
2023/06/04 01:59:17;;;;;;;3.60;3.30;;;25.00;42.50;;;;;;5067176;28;45317;-66
2023/06/04 02:01:45;;;;;;;3.63;3.30;;;25.00;42.50;;;;;;5067002;28;45285;-68
2023/06/04 02:04:12;;;;;;;3.70;3.30;;;25.00;42.60;;;;;;5067384;28;45488;-67
2023/06/04 02:06:39;;;;;;;3.47;3.17;;;24.90;42.60;;;;;;5066864;28;46322;-66
2023/06/04 02:09:06;;;;;;;3.60;3.30;;;24.90;42.60;;;;;;5066870;28;45388;-66
2023/06/04 02:11:32;;;;;;;3.95;3.10;;;24.90;42.60;;;;;;5067097;28;45411;-65
2023/06/04 02:13:59;;;;;;;3.33;3.03;;;24.90;42.60;;;;;;5067393;28;45351;-65
2023/06/04 02:16:26;;;;;;;3.75;3.45;;;24.90;42.60;;;;;;5066520;28;46380;-66
2023/06/04 02:18:54;;;;;;;3.72;3.42;;;24.80;42.60;;;;;;5066787;28;45234;-66
2023/06/04 02:21:21;;;;;;;3.33;3.00;;;24.80;42.60;;;;;;5066933;28;45355;-66
2023/06/04 02:23:48;;;;;;;4.15;3.75;;;24.80;42.70;;;;;;5066964;28;45395;-66
2023/06/04 02:26:14;;;;;;;3.58;3.28;;;24.80;42.70;;;;;;5066371;27;45346;-66
2023/06/04 02:28:41;;;;;;;3.47;3.17;;;24.70;42.70;;;;;;5066615;28;45272;-66
2023/06/04 02:31:08;;;;;;;3.63;3.20;;;24.70;42.70;;;;;;5066699;28;45376;-65
2023/06/04 02:33:35;;;;;;;3.72;3.35;;;24.70;42.60;;;;;;5066870;28;45383;-65
2023/06/04 02:36:03;;;;;;;3.72;3.42;;;24.70;42.60;;;;;;5066251;28;46342;-65
2023/06/04 02:38:30;;;;;;;3.58;3.28;;;24.70;43.20;;;;;;5066505;28;45274;-65
2023/06/04 02:40:57;;;;;;;3.30;3.00;;;24.70;42.70;;;;;;5066548;28;45262;-67
2023/06/04 02:43:24;;;;;;;3.40;3.10;;;24.60;42.60;;;;;;5064146;28;45403;-66
2023/06/04 02:45:50;;;;;;;3.42;3.13;;;24.60;42.60;;;;;;5066133;28;45562;-67
2023/06/04 02:48:17;;;;;;;3.38;3.08;;;24.60;42.60;;;;;;5066372;28;45422;-65
2023/06/04 02:50:44;;;;;;;3.28;2.97;;;24.50;42.60;;;;;;5066454;28;45297;-66
2023/06/04 02:53:12;;;;;;;3.50;3.20;;;24.50;43.20;;;;;;5066674;28;45253;-67
2023/06/04 02:55:39;;;;;;;3.25;2.95;;;24.50;42.60;;;;;;5066070;28;45363;-68
2023/06/04 02:58:06;;;;;;;3.70;3.38;;;24.50;42.60;;;;;;5066175;28;45340;-67
2023/06/04 03:00:33;;;;;;;4.57;3.20;;;24.50;42.60;;;;;;5065821;28;45320;-65
2023/06/04 03:03:02;;;;;;;3.25;2.95;;;24.50;42.70;;;;;;5066189;28;45365;-66
2023/06/04 03:05:30;;;;;;;3.38;3.08;;;24.50;42.80;;;;;;5066016;28;45384;-68
2023/06/04 03:07:58;;;;;;;3.28;2.97;;;24.40;42.70;;;;;;5065887;28;45352;-68
2023/06/04 03:10:26;;;;;;;3.25;2.95;;;24.40;42.70;;;;;;5066186;28;45327;-67
2023/06/04 03:12:53;;;;;;;3.50;3.20;;;24.40;42.60;;;;;;5066343;28;45302;-66
2023/06/04 03:15:20;;;;;;;3.10;2.80;;;24.40;42.70;;;;;;5065817;28;46746;-67
2023/06/04 03:17:47;;;;;;;3.22;2.83;;;24.40;42.70;;;;;;5065704;28;45328;-67
2023/06/04 03:20:13;;;;;;;3.60;2.78;;;24.30;42.80;;;;;;5066303;28;45328;-67
2023/06/04 03:22:40;;;;;;;3.15;2.85;;;24.30;42.70;;;;;;5066138;28;45245;-67
2023/06/04 03:25:07;;;;;;;3.30;3.00;;;24.30;42.70;;;;;;5066032;28;46162;-67
2023/06/04 03:27:36;;;;;;;4.05;3.28;;;24.30;42.60;;;;;;5065639;28;45395;-65
2023/06/04 03:30:03;;;;;;;3.42;3.00;;;24.20;42.70;;;;;;5065826;28;45392;-67
2023/06/04 03:32:29;;;;;;;3.45;3.10;;;24.20;42.60;;;;;;5065891;28;45552;-67
2023/06/04 03:34:56;;;;;;;3.95;3.03;;;24.20;42.60;;;;;;5065656;28;45335;-68
2023/06/04 03:37:23;;;;;;;3.40;3.10;;;24.20;42.60;;;;;;5065459;28;45288;-68
2023/06/04 03:39:50;;;;;;;3.22;2.92;;;24.20;42.70;;;;;;5065761;28;45171;-66
2023/06/04 03:42:17;;;;;;;3.05;2.75;;;24.20;42.70;;;;;;5065747;28;45404;-67
2023/06/04 03:44:46;;;;;;;3.50;3.20;;;24.20;42.70;;;;;;5065460;28;46237;-65
2023/06/04 03:47:12;;;;;;;3.45;3.05;;;24.10;42.60;;;;;;5065402;28;45307;-67
2023/06/04 03:49:40;;;;;;;3.72;3.33;;;24.10;42.60;;;;;;5065620;28;45781;-67
2023/06/04 03:52:07;;;;;;;3.35;2.97;;;24.10;42.60;;;;;;5065742;28;45538;-67
2023/06/04 03:54:34;;;;;;;3.20;2.90;;;24.10;42.60;;;;;;5065268;28;46379;-67
2023/06/04 03:57:01;;;;;;;3.85;2.90;;;24.10;42.70;;;;;;5065113;28;45387;-68
2023/06/04 03:59:28;;;;;;;4.32;3.00;;;24.10;42.70;;;;;;5065456;28;45335;-69
2023/06/04 04:01:56;;;;;;;3.45;3.15;;;24.00;42.70;;;;;;5065626;28;45409;-67
2023/06/04 04:04:23;;;;;;;3.33;3.03;;;24.00;42.60;;;;;;5065198;28;46386;-66
2023/06/04 04:06:51;;;;;;;3.10;2.80;;;24.00;42.60;;;;;;5065246;28;45313;-66
2023/06/04 04:09:17;;;;;;;3.42;3.10;;;24.00;42.60;;;;;;5065352;28;45293;-67
2023/06/04 04:11:44;;;;;;;3.00;2.80;;;24.00;43.10;;;;;;5067002;28;45387;-67
2023/06/04 04:14:11;;;;;;;3.60;2.97;;;24.00;42.60;;;;;;5068608;28;45403;-67
2023/06/04 04:16:38;;;;;;;2.80;2.60;;;23.90;42.60;;;;;;5068806;28;45443;-67
2023/06/04 04:19:07;;;;;;;3.30;2.92;;;23.90;42.60;;;;;;5068865;28;45311;-67
2023/06/04 04:21:36;;;;;;;2.97;2.70;;;23.90;42.50;;;;;;5068963;28;45278;-66
2023/06/04 04:24:03;;;;;;;3.00;2.70;;;23.90;42.60;;;;;;5068639;28;46582;-66
2023/06/04 04:26:29;;;;;;;2.75;2.55;;;23.90;42.60;;;;;;5068479;28;45300;-68
2023/06/04 04:28:57;;;;;;;3.10;2.90;;;23.90;42.60;;;;;;5068773;28;45318;-67
2023/06/04 04:31:25;;;;;;;2.80;2.60;;;23.80;42.50;;;;;;5068841;28;45429;-67
2023/06/04 04:33:52;;;;;;;3.80;2.80;;;23.80;42.50;;;;;;5068356;28;46499;-66
2023/06/04 04:36:20;;;;;;;4.07;2.70;;;23.80;42.50;;;;;;5068399;28;45514;-67
2023/06/04 04:38:53;;;;;;;3.10;2.80;;;23.80;42.50;;;;;;5068619;28;45264;-67
2023/06/04 04:41:20;;;;;;;3.10;2.80;;;23.80;42.60;;;;;;5068646;28;45309;-66
2023/06/04 04:43:47;;;;;;;3.08;2.78;;;23.80;42.60;;;;;;5068219;28;47576;-67
2023/06/04 04:46:14;;;;;;;3.30;2.97;;;23.80;42.60;;;;;;5068387;28;45367;-67
2023/06/04 04:48:42;;;;;;;3.15;2.85;;;23.80;42.60;;;;;;5068307;28;45261;-67
2023/06/04 04:51:09;;;;;;;3.00;2.50;;;23.70;42.50;;;;;;5068610;28;45316;-65
2023/06/04 04:53:37;;;;;;;3.40;2.75;;;23.70;42.50;;;;;;5068020;28;46394;-68
2023/06/04 04:56:04;;;;;;;3.00;2.70;;;23.70;42.50;;;;;;5068271;28;45581;-67
2023/06/04 04:58:30;;;;;;;3.35;2.60;;;23.70;42.50;;;;;;5068084;28;45375;-67
2023/06/04 05:00:57;;;;;;;3.10;2.78;;;23.70;42.60;;;;;;5068329;28;45466;-68
2023/06/04 05:03:24;;;;;;;3.45;2.78;;;23.70;42.50;;;;;;5067747;28;46411;-67
2023/06/04 05:05:51;;;;;;;2.70;2.50;;;23.70;42.50;;;;;;5067888;28;45322;-67
2023/06/04 05:08:18;;;;;;;2.97;2.67;;;23.60;42.50;;;;;;5068121;28;45316;-67
2023/06/04 05:10:46;;;;;;;2.70;2.50;;;23.60;42.50;;;;;;5068118;28;45383;-67
2023/06/04 05:13:13;;;;;;;2.67;2.47;;;23.60;42.50;;;;;;5067743;28;46740;-67
2023/06/04 05:15:42;;;;;;;3.00;2.78;;;23.60;42.50;;;;;;5067921;28;45262;-67
2023/06/04 05:18:08;;;;;;;2.70;2.47;;;23.60;42.50;;;;;;5067816;28;45277;-67
2023/06/04 05:20:37;;;;;;;2.78;2.53;;;23.60;42.50;;;;;;5067953;28;45396;-67
2023/06/04 05:23:04;;;;;;;2.72;2.40;;;23.60;42.40;;;;;;5067447;27;45639;-67
2023/06/04 05:25:31;;;;;;;2.47;2.28;;;23.60;42.40;;;;;;5067612;28;45260;-68
2023/06/04 05:27:59;;;;;;;3.13;2.72;;;23.60;43.00;;;;;;5067691;28;45335;-67
2023/06/04 05:30:26;;;;;;;3.22;2.40;;;23.60;42.40;;;;;;5067781;28;45493;-67
2023/06/04 05:32:53;;;;;;;3.60;2.58;;;23.60;42.40;;;;;;5067440;28;46424;-65
2023/06/04 05:35:20;;;;;;;3.40;2.60;;;23.60;42.40;;;;;;5067534;28;45257;-69
2023/06/04 05:37:53;;;;;;;2.40;2.20;;;23.60;42.40;;;;;;5067535;28;45265;-67
2023/06/04 05:40:20;;;;;;;2.83;2.40;;;23.60;42.40;;;;;;5067783;28;45260;-67
2023/06/04 05:42:47;;;;;;;3.10;2.67;;;23.60;42.40;;;;;;5067322;28;45421;-65
2023/06/04 05:45:16;;;;;;;2.50;2.30;;;23.60;42.50;;;;;;5067539;28;45328;-66
2023/06/04 05:47:43;;;;;;;2.33;2.13;;;23.60;42.40;;;;;;5067368;28;45389;-65
2023/06/04 05:50:10;;;;;;;2.35;2.15;;;23.60;42.40;;;;;;5067683;28;45310;-65
2023/06/04 05:52:37;;;;;;;2.78;2.55;;;23.60;42.40;;;;;;5067168;28;47394;-66
2023/06/04 05:55:07;;;;;;;2.80;2.60;;;23.60;42.40;;;;;;5067291;28;45360;-65
2023/06/04 05:57:34;;;;;;;2.50;2.30;;;23.60;42.40;;;;;;5067257;28;45381;-65
2023/06/04 06:00:01;;;;;;;3.30;2.80;;;23.60;42.40;;;;;;5067383;28;45471;-67
2023/06/04 06:02:30;;;;;;;3.38;2.25;;;23.60;42.40;;;;;;5066738;28;45615;-66
2023/06/04 06:04:57;;;;;;;2.88;2.60;;;23.60;42.40;;;;;;5067193;28;45573;-66
2023/06/04 06:07:24;;;;;;;2.22;2.03;;;23.60;42.40;;;;;;5066948;28;45411;-66
2023/06/04 06:09:50;;;;;;;2.33;2.10;;;23.50;42.40;;;;;;5067490;28;45439;-66
2023/06/04 06:12:17;;;;;;;2.90;2.20;;;23.50;42.40;;;;;;5066927;28;46316;-66
2023/06/04 06:14:44;;;;;;;2.92;2.15;;;23.50;42.50;;;;;;5066821;28;45138;-65
2023/06/04 06:17:11;;;;;;;2.33;2.05;;;23.50;42.40;;;;;;5066846;28;45408;-65
2023/06/04 06:19:40;;;;;;;2.42;2.20;;;23.60;42.40;;;;;;5067269;28;45379;-65
2023/06/04 06:22:06;;;;;;;2.80;2.40;;;23.60;42.40;;;;;;5066829;28;46464;-65
2023/06/04 06:24:33;;;;;;;8.55;2.58;;;23.60;42.40;;;;;;5066707;28;45257;-65
2023/06/04 06:27:00;;;;;;;10.00;2.53;;;23.60;42.40;;;;;;5066854;28;45377;-64
2023/06/04 06:29:27;;;;;;;7.07;3.08;;;23.60;42.50;;;;;;5062819;28;45305;-65
2023/06/04 06:31:54;;;;;;;9.63;3.00;;;23.70;42.60;;;;;;5062093;28;46346;-66
2023/06/04 06:34:21;;;;;;;13.60;2.88;;;23.80;42.60;;;;;;5065963;28;45268;-65
2023/06/04 06:36:49;;;;;;;7.10;2.60;;;23.80;42.70;;;;;;5065694;28;45315;-65
2023/06/04 06:39:16;;;;;;;3.67;2.00;;;23.90;43.00;;;;;;5066290;28;45498;-65
2023/06/04 06:41:43;;;;;;;2.80;1.88;;;24.00;42.70;;;;;;5066287;28;45396;-65
2023/06/04 06:44:10;;;;;;;9.23;3.25;;;24.10;42.90;;;;;;5064596;28;45431;-65
2023/06/04 06:46:36;;;;;;;4.28;2.30;;;24.10;42.70;;;;;;5061425;28;45466;-66
2023/06/04 06:49:04;;;;;;;11.77;2.83;;;24.20;42.70;;;;;;5078378;28;45370;-64
2023/06/04 06:51:31;;;;;;;6.18;2.42;;;24.30;42.60;;;;;;5065016;28;46320;-66
2023/06/04 06:53:59;;;;;;;20.23;16.10;;;24.40;42.90;;;;;;5064462;28;45435;-63
2023/06/04 06:56:26;;;;;;;18.42;9.73;;;24.50;42.20;;;;;;5065680;28;45335;-67
2023/06/04 06:58:52;;;;;;;9.65;5.88;;;24.50;42.10;;;;;;5065884;28;45336;-66
2023/06/04 07:01:19;;;;;;;11.73;5.30;;;24.60;41.80;;;;;;5066556;28;46349;-68
2023/06/04 07:03:46;;;;;;;8.18;4.72;;;24.70;41.90;;;;;;5069343;28;45505;-65
2023/06/04 07:06:13;;;;;;;9.55;4.38;;;24.70;41.60;;;;;;5074718;27;45599;-64
2023/06/04 07:08:42;;;;;;;7.45;4.65;;;24.80;41.50;;;;;;5070761;28;45397;-64
2023/06/04 07:11:11;;;;;;;9.45;4.68;;;24.90;41.40;;;;;;5067107;27;45548;-64
2023/06/04 07:13:38;;;;;;;6.78;3.75;;;25.00;41.30;;;;;;5065114;28;45494;-64
2023/06/04 07:16:06;;;;;;;4.90;3.70;;;25.10;41.00;;;;;;5072870;28;45436;-64
2023/06/04 07:18:33;;;;;;;4.95;4.30;;;25.20;41.00;;;;;;5064043;28;45445;-64
2023/06/04 07:21:00;;;;;;;7.15;5.30;;;25.30;40.90;;;;;;5066531;28;46626;-65
2023/06/04 07:23:27;;;;;;;5.68;5.07;;;25.30;40.70;;;;;;5065253;28;45391;-63
2023/06/04 07:25:54;;;;;;;8.93;7.05;;;25.40;40.60;;;;;;5065540;28;45452;-65
2023/06/04 07:28:22;;;;;;;8.93;7.47;;;25.50;40.60;;;;;;5061445;28;45428;-66
2023/06/04 07:30:49;;;;;;;12.15;8.55;;;25.60;40.60;;;;;;5064983;28;46338;-64
2023/06/04 07:33:16;;;;;;;10.02;8.20;;;25.60;40.50;;;;;;5066469;28;45532;-65
2023/06/04 07:35:43;;;;;;;7.97;6.00;;;25.70;40.40;;;;;;5066310;28;45317;-64
2023/06/04 07:38:10;;;;;;;8.25;6.28;;;25.80;40.30;;;;;;5064544;28;45431;-66
2023/06/04 07:40:36;;;;;;;8.75;5.43;;;25.80;40.50;;;;;;5066592;28;46929;-66
2023/06/04 07:43:03;;;;;;;12.77;7.25;;;25.90;41.30;;;;;;5062815;28;45554;-65
2023/06/04 07:45:31;;;;;;;9.63;6.15;;;25.90;40.70;;;;;;5065462;28;45445;-66
2023/06/04 07:47:58;;;;;;;52.28;11.75;;;26.00;40.50;;;;;;5066366;28;45538;-65
2023/06/04 07:50:25;;;;;;;54.85;13.35;;;26.00;41.30;;;;;;5066823;28;47351;-63
2023/06/04 07:52:52;;;;;;;34.30;11.68;;;26.10;41.50;;;;;;5066301;28;45390;-66
2023/06/04 07:55:19;;;;;;;33.47;13.60;;;26.10;40.70;;;;;;5066762;28;45350;-66
2023/06/04 07:57:46;;;;;;;34.35;15.15;;;26.20;40.60;;;;;;5056189;28;45411;-66
2023/06/04 08:00:14;;;;;;;38.40;15.50;;;26.20;40.20;;;;;;5065312;28;45341;-62
2023/06/04 08:02:43;;;;;;;39.83;15.32;;;26.30;40.20;;;;;;5065405;28;45320;-64
2023/06/04 08:05:09;;;;;;;61.28;14.40;;;26.30;40.20;;;;;;5066526;27;45249;-66
2023/06/04 08:07:36;;;;;;;36.38;11.10;;;26.40;40.70;;;;;;5066356;28;45271;-64
2023/06/04 08:10:03;;;;;;;17.48;8.45;;;26.50;41.10;;;;;;5064142;28;46484;-64
2023/06/04 08:12:30;;;;;;;20.90;9.02;;;26.50;40.00;;;;;;5064305;28;45345;-64
2023/06/04 08:14:57;;;;;;;18.33;9.93;;;26.50;39.80;;;;;;5064114;28;45454;-64
2023/06/04 08:17:24;;;;;;;13.95;8.00;;;26.50;39.60;;;;;;5063556;28;45419;-64
2023/06/04 08:19:52;;;;;;;14.65;9.88;;;26.60;39.50;;;;;;5064201;28;45397;-64
2023/06/04 08:22:19;;;;;;;12.77;8.55;;;26.60;39.40;;;;;;5064795;28;45340;-65
2023/06/04 08:24:46;;;;;;;12.27;7.95;;;26.60;39.40;;;;;;5064710;28;45295;-64
2023/06/04 08:27:13;;;;;;;7.20;6.32;;;26.60;39.30;;;;;;5063848;28;45475;-66
2023/06/04 08:29:40;;;;;;;12.35;6.63;;;26.70;39.50;;;;;;5060630;28;46420;-65
2023/06/04 08:32:07;;;;;;;15.40;6.35;;;26.70;39.30;;;;;;5065162;28;45405;-65
2023/06/04 08:34:34;;;;;;;11.27;6.93;;;26.70;39.50;;;;;;5064635;28;45321;-65
2023/06/04 08:37:03;;;;;;;18.70;6.72;;;26.70;39.30;;;;;;5063918;28;45311;-66
2023/06/04 08:39:30;;;;;;;34.22;8.10;;;26.70;39.20;;;;;;5066064;28;46673;-65
2023/06/04 08:42:00;;;;;;;29.55;8.40;;;26.70;39.30;;;;;;5066491;28;45364;-69
2023/06/04 08:44:27;;;;;;;35.22;8.77;;;26.70;39.40;;;;;;5067445;28;45341;-64
2023/06/04 08:46:54;;;;;;;27.20;7.18;;;26.70;39.80;;;;;;5064502;28;45449;-66
2023/06/04 08:49:21;;;;;;;30.88;7.82;;;26.70;39.60;;;;;;5065865;28;46675;-66
2023/06/04 08:51:48;;;;;;;28.17;9.27;;;26.70;39.50;;;;;;5065475;28;45348;-64
2023/06/04 08:54:17;;;;;;;46.03;10.20;;;26.80;39.60;;;;;;5066348;28;45427;-65
2023/06/04 08:56:43;;;;;;;29.20;12.10;;;26.80;39.50;;;;;;5063027;28;45396;-64
2023/06/04 08:59:11;;;;;;;23.90;11.05;;;26.90;39.40;;;;;;5067356;28;46485;-65
2023/06/04 09:01:38;;;;;;;15.90;9.68;;;26.90;39.20;;;;;;5067637;28;45350;-67
2023/06/04 09:04:05;;;;;;;17.67;9.00;;;27.00;39.10;;;;;;5068729;28;45404;-66
2023/06/04 09:06:32;;;;;;;16.73;7.25;;;27.00;39.10;;;;;;5069972;28;45321;-66
2023/06/04 09:08:59;;;;;;;11.43;7.57;;;27.00;40.60;;;;;;5068492;28;47374;-66
2023/06/04 09:11:31;;;;;;;11.50;7.75;;;27.00;39.10;;;;;;5067932;28;45324;-66
2023/06/04 09:13:59;;;;;;;10.23;6.53;;;27.10;38.80;;;;;;5066910;28;45406;-68
2023/06/04 09:16:26;;;;;;;10.50;5.47;;;27.10;38.80;;;;;;5064793;28;45377;-67
2023/06/04 09:18:52;;;;;;;9.52;5.65;;;27.10;38.70;;;;;;5067074;28;46432;-65
2023/06/04 09:21:21;;;;;;;6.00;4.95;;;27.20;38.80;;;;;;5067387;28;45315;-66
2023/06/04 09:23:48;;;;;;;8.82;5.32;;;27.20;38.70;;;;;;5063449;28;45534;-66
2023/06/04 09:26:15;;;;;;;15.02;7.03;;;27.20;38.60;;;;;;5066350;28;45411;-67
2023/06/04 09:28:43;;;;;;;9.90;6.43;;;27.30;38.70;;;;;;5063721;28;45543;-67
2023/06/04 09:31:10;;;;;;;11.50;8.80;;;27.30;38.60;;;;;;5067326;28;45564;-66
2023/06/04 09:33:44;;;;;;;12.63;9.38;;;27.30;38.90;;;;;;5062077;28;45317;-67
2023/06/04 09:36:11;;;;;;;17.13;8.73;;;27.40;38.70;;;;;;5063364;28;45483;-69
2023/06/04 09:38:38;;;;;;;10.82;6.80;;;27.40;38.60;;;;;;5067084;28;45415;-66
2023/06/04 09:41:05;;;;;;;12.70;7.32;;;27.30;38.60;;;;;;5068926;28;45273;-66
2023/06/04 09:43:32;;;;;;;17.23;6.25;;;27.30;39.30;;;;;;5067935;28;45434;-67
2023/06/04 09:46:11;;;;;;;20.63;5.65;;;27.40;39.20;;;;;;5068196;28;45433;-68
2023/06/04 09:48:38;;;;;;;13.00;5.55;;;27.40;39.10;;;;;;5068773;28;45465;-66
2023/06/04 09:51:09;;;;;;;7.72;4.40;;;27.40;40.40;;;;;;5068934;28;45564;-66
2023/06/04 09:53:35;;;;;;;14.25;4.80;;;27.40;40.10;;;;;;5075796;28;45463;-64
2023/06/04 09:56:04;;;;;;;30.05;6.05;;;27.50;39.90;;;;;;5057940;28;45491;-65
2023/06/04 09:58:31;;;;;;;23.60;6.50;;;27.50;39.20;;;;;;5063637;28;45269;-65
2023/06/04 10:00:59;;;;;;;35.38;8.38;;;27.50;39.10;;;;;;5067099;28;45424;-63
2023/06/04 10:03:28;;;;;;;36.78;10.60;;;27.60;39.10;;;;;;5067179;28;45433;-64
2023/06/04 10:05:55;;;;;;;49.75;13.07;;;27.60;39.00;;;;;;5067493;28;45288;-65
2023/06/04 10:08:22;;;;;;;58.58;13.10;;;27.60;39.00;;;;;;5072330;27;46376;-66
2023/06/04 10:10:49;;;;;;;29.73;10.65;;;27.70;38.90;;;;;;5065588;28;45425;-67
2023/06/04 10:13:18;;;;;;;20.85;8.75;;;27.70;38.90;;;;;;5067391;28;45517;-67
2023/06/04 10:15:45;;;;;;;15.60;7.47;;;27.80;39.00;;;;;;5071075;28;45422;-68
2023/06/04 10:18:12;;;;;;;19.02;8.50;;;27.90;38.70;;;;;;5063189;28;46403;-67
2023/06/04 10:20:41;;;;;;;14.10;6.85;;;27.90;38.50;;;;;;5067512;28;45402;-66
2023/06/04 10:23:07;;;;;;;12.07;6.70;;;27.90;38.30;;;;;;5065598;28;45287;-67
2023/06/04 10:25:35;;;;;;;12.63;6.63;;;28.00;38.40;;;;;;5064626;28;45419;-67
2023/06/04 10:28:02;;;;;;;13.63;9.10;;;28.00;38.30;;;;;;5063297;28;45304;-65
2023/06/04 10:30:30;;;;;;;13.18;8.68;;;28.10;38.30;;;;;;5064943;28;45439;-68
2023/06/04 10:32:57;;;;;;;13.32;6.80;;;28.10;38.40;;;;;;5066296;28;45546;-68
2023/06/04 10:35:31;;;;;;;14.82;8.85;;;28.10;38.20;;;;;;5065704;28;45483;-68
2023/06/04 10:38:08;;;;;;;13.68;7.07;;;28.20;38.20;;;;;;5058666;28;46401;-66
2023/06/04 10:40:34;;;;;;;11.52;5.40;;;28.20;38.20;;;;;;5067131;28;45394;-67
2023/06/04 10:43:05;;;;;;;7.65;5.10;;;28.20;38.10;;;;;;5066035;28;45333;-66
2023/06/04 10:45:32;;;;;;;9.98;5.28;;;28.20;38.40;;;;;;5065338;28;45310;-67
2023/06/04 10:48:01;;;;;;;9.57;6.43;;;28.30;38.30;;;;;;5061986;28;45456;-68
2023/06/04 10:50:28;;;;;;;11.02;5.05;;;28.30;38.30;;;;;;5062742;28;45386;-68
2023/06/04 10:52:57;;;;;;;7.97;3.85;;;28.30;38.20;;;;;;5067470;28;45506;-67
2023/06/04 10:55:25;;;;;;;21.65;5.20;;;28.30;37.80;;;;;;5067158;28;45554;-65
2023/06/04 10:57:53;;;;;;;7.88;3.75;;;28.20;37.70;;;;;;5062352;28;45476;-64
2023/06/04 11:00:20;;;;;;;19.48;5.55;;;28.30;38.30;;;;;;5062794;28;45423;-69
2023/06/04 11:02:53;;;;;;;27.38;5.88;;;28.30;38.40;;;;;;5065687;28;45451;-65
2023/06/04 11:05:20;;;;;;;18.27;5.43;;;28.40;39.20;;;;;;5065804;28;45305;-67
2023/06/04 11:07:48;;;;;;;13.90;4.35;;;28.40;38.30;;;;;;5064063;28;45541;-69
2023/06/04 11:10:16;;;;;;;19.77;5.57;;;28.50;38.20;;;;;;5065320;28;45390;-65
2023/06/04 11:12:45;;;;;;;42.00;8.32;;;28.60;38.40;;;;;;5066552;28;45439;-66
2023/06/04 11:15:12;;;;;;;32.88;7.70;;;28.70;38.60;;;;;;5067344;28;45346;-67
2023/06/04 11:17:49;;;;;;;25.30;9.18;;;28.80;39.50;;;;;;5064953;28;46418;-70
2023/06/04 11:20:17;;;;;;;36.55;8.57;;;28.90;38.60;;;;;;5062423;28;45462;-68
2023/06/04 11:22:44;;;;;;;16.10;6.68;;;29.00;38.70;;;;;;5071157;28;45472;-66
2023/06/04 11:25:11;;;;;;;13.82;6.28;;;29.10;38.60;;;;;;5073898;28;45375;-66
2023/06/04 11:27:38;;;;;;;13.07;6.15;;;29.10;38.70;;;;;;5072356;27;46429;-66
2023/06/04 11:30:08;;;;;;;8.52;5.28;;;29.20;38.50;;;;;;5075687;28;45528;-66
2023/06/04 11:32:35;;;;;;;8.50;4.05;;;29.30;38.40;;;;;;5065299;28;45293;-68
2023/06/04 11:35:06;;;;;;;8.43;3.92;;;29.40;38.30;;;;;;5064401;28;45558;-66
2023/06/04 11:37:33;;;;;;;5.05;3.70;;;29.30;38.30;;;;;;5061064;28;46548;-67
2023/06/04 11:40:00;;;;;;;4.97;3.15;;;29.30;38.20;;;;;;5064213;28;45373;-67
2023/06/04 11:42:28;;;;;;;5.35;3.25;;;29.20;38.40;;;;;;5063874;28;45806;-67
2023/06/04 11:44:56;;;;;;;4.95;3.30;;;29.10;38.60;;;;;;5065074;28;45297;-68
2023/06/04 11:47:24;;;;;;;3.15;2.67;;;29.00;38.90;;;;;;5063413;28;46735;-66
2023/06/04 11:49:55;;;;;;;3.97;3.10;;;29.00;39.10;;;;;;5064910;28;45387;-68
2023/06/04 11:52:22;;;;;;;4.75;3.70;;;28.90;39.20;;;;;;5064981;28;45288;-66
2023/06/04 11:54:49;;;;;;;3.95;3.65;;;28.90;39.40;;;;;;5065528;28;45501;-69
2023/06/04 11:57:16;;;;;;;5.22;4.15;;;28.90;39.60;;;;;;5063145;28;45447;-68
2023/06/04 11:59:42;;;;;;;10.02;4.22;;;28.90;39.80;;;;;;5064842;28;45391;-71
2023/06/04 12:02:09;;;;;;;7.30;4.40;;;29.00;39.90;;;;;;5064525;28;45424;-67
2023/06/04 12:04:38;;;;;;;8.30;4.72;;;29.00;39.90;;;;;;5065234;28;45340;-69
2023/06/04 12:07:06;;;;;;;7.25;4.82;;;29.10;39.70;;;;;;5063120;28;46395;-68
2023/06/04 12:09:34;;;;;;;6.60;4.35;;;29.10;39.50;;;;;;5064467;28;45410;-68
2023/06/04 12:12:02;;;;;;;6.65;4.13;;;29.30;39.10;;;;;;5064852;28;45277;-72
2023/06/04 12:14:28;;;;;;;9.15;5.30;;;29.30;38.80;;;;;;5063106;28;45348;-67
2023/06/04 12:16:56;;;;;;;6.13;5.13;;;29.40;38.80;;;;;;5069505;28;46171;-70
2023/06/04 12:19:23;;;;;;;6.18;4.93;;;29.50;38.60;;;;;;5069385;28;45477;-68
2023/06/04 12:22:00;;;;;;;13.50;4.35;;;29.60;38.80;;;;;;5069768;27;45332;-69
2023/06/04 12:24:27;;;;;;;32.42;6.40;;;29.60;38.70;;;;;;5049444;28;45563;-69
2023/06/04 12:27:02;;;;;;;34.45;5.03;;;29.70;38.80;;;;;;5065058;28;45398;-66
2023/06/04 12:29:29;;;;;;;17.45;4.63;;;29.70;38.80;;;;;;5066066;28;45341;-67
2023/06/04 12:32:03;;;;;;;21.33;5.32;;;29.80;38.80;;;;;;5067508;28;45437;-66
2023/06/04 12:34:30;;;;;;;17.30;4.10;;;29.80;38.70;;;;;;5067265;28;45348;-68
2023/06/04 12:36:58;;;;;;;7.88;3.60;;;29.70;38.80;;;;;;5067582;28;45685;-67
2023/06/04 12:39:25;;;;;;;9.55;3.20;;;29.70;38.70;;;;;;5068348;28;45352;-67
2023/06/04 12:41:52;;;;;;;3.95;2.72;;;29.80;38.40;;;;;;5068365;28;45320;-68
2023/06/04 12:44:18;;;;;;;4.95;3.15;;;29.80;38.40;;;;;;5068476;28;45364;-67